sensor_id;sensor_type;location;lat;lon;timestamp;P1;durP1;ratioP1;P2;durP2;ratioP2
65597;SDS011;52267;51.984;20.956;2023-09-19T00:00:46;17.20;;;11.80;;
65597;SDS011;52267;51.984;20.956;2023-09-19T00:03:34;16.10;;;11.50;;
65597;SDS011;52267;51.984;20.956;2023-09-19T00:08:34;14.80;;;10.40;;
65597;SDS011;52267;51.984;20.956;2023-09-19T00:11:01;15.70;;;11.30;;
65597;SDS011;52267;51.984;20.956;2023-09-19T00:16:00;16.50;;;11.20;;
65597;SDS011;52267;51.984;20.956;2023-09-19T00:18:28;16.60;;;12.00;;
65597;SDS011;52267;51.984;20.956;2023-09-19T00:20:59;16.50;;;12.00;;
65597;SDS011;52267;51.984;20.956;2023-09-19T00:23:26;16.90;;;11.80;;
65597;SDS011;52267;51.984;20.956;2023-09-19T00:26:01;16.60;;;11.60;;
65597;SDS011;52267;51.984;20.956;2023-09-19T00:28:28;18.60;;;11.40;;
65597;SDS011;52267;51.984;20.956;2023-09-19T00:30:56;16.90;;;12.00;;
65597;SDS011;52267;51.984;20.956;2023-09-19T00:33:23;17.30;;;12.20;;
65597;SDS011;52267;51.984;20.956;2023-09-19T00:35:52;16.90;;;11.20;;
65597;SDS011;52267;51.984;20.956;2023-09-19T00:38:20;15.50;;;10.90;;
65597;SDS011;52267;51.984;20.956;2023-09-19T00:40:51;17.30;;;11.70;;
65597;SDS011;52267;51.984;20.956;2023-09-19T00:43:18;17.80;;;12.50;;
65597;SDS011;52267;51.984;20.956;2023-09-19T00:45:51;16.00;;;12.00;;
65597;SDS011;52267;51.984;20.956;2023-09-19T00:48:23;17.90;;;12.20;;
65597;SDS011;52267;51.984;20.956;2023-09-19T00:50:52;17.00;;;11.90;;
65597;SDS011;52267;51.984;20.956;2023-09-19T00:53:23;16.50;;;11.30;;
65597;SDS011;52267;51.984;20.956;2023-09-19T00:55:51;17.40;;;12.10;;
65597;SDS011;52267;51.984;20.956;2023-09-19T00:58:19;17.70;;;12.30;;
65597;SDS011;52267;51.984;20.956;2023-09-19T01:00:48;15.70;;;11.90;;
65597;SDS011;52267;51.984;20.956;2023-09-19T01:03:17;19.40;;;11.90;;
65597;SDS011;52267;51.984;20.956;2023-09-19T01:05:45;16.10;;;11.60;;
65597;SDS011;52267;51.984;20.956;2023-09-19T01:08:12;16.90;;;11.20;;
65597;SDS011;52267;51.984;20.956;2023-09-19T01:10:46;19.30;;;12.80;;
65597;SDS011;52267;51.984;20.956;2023-09-19T01:16:29;19.20;;;12.50;;
65597;SDS011;52267;51.984;20.956;2023-09-19T01:19:42;15.40;;;11.60;;
65597;SDS011;52267;51.984;20.956;2023-09-19T01:28:30;17.30;;;11.60;;
65597;SDS011;52267;51.984;20.956;2023-09-19T01:31:03;17.60;;;12.20;;
65597;SDS011;52267;51.984;20.956;2023-09-19T01:34:06;18.20;;;12.00;;
65597;SDS011;52267;51.984;20.956;2023-09-19T01:36:37;17.80;;;12.00;;
65597;SDS011;52267;51.984;20.956;2023-09-19T01:39:07;16.80;;;12.30;;
65597;SDS011;52267;51.984;20.956;2023-09-19T01:42:28;19.10;;;13.70;;
65597;SDS011;52267;51.984;20.956;2023-09-19T01:47:51;17.00;;;12.60;;
65597;SDS011;52267;51.984;20.956;2023-09-19T01:50:34;15.80;;;11.60;;
65597;SDS011;52267;51.984;20.956;2023-09-19T01:53:19;20.10;;;11.70;;
65597;SDS011;52267;51.984;20.956;2023-09-19T01:55:52;18.00;;;11.40;;
65597;SDS011;52267;51.984;20.956;2023-09-19T01:58:27;17.90;;;11.90;;
65597;SDS011;52267;51.984;20.956;2023-09-19T02:01:00;16.00;;;11.60;;
65597;SDS011;52267;51.984;20.956;2023-09-19T02:03:28;19.00;;;12.50;;
65597;SDS011;52267;51.984;20.956;2023-09-19T02:05:55;15.90;;;11.30;;
65597;SDS011;52267;51.984;20.956;2023-09-19T02:08:23;17.90;;;12.20;;
65597;SDS011;52267;51.984;20.956;2023-09-19T02:10:53;17.40;;;11.70;;
65597;SDS011;52267;51.984;20.956;2023-09-19T02:13:21;17.90;;;12.60;;
65597;SDS011;52267;51.984;20.956;2023-09-19T02:15:51;15.70;;;11.50;;
65597;SDS011;52267;51.984;20.956;2023-09-19T02:18:18;17.00;;;10.30;;
65597;SDS011;52267;51.984;20.956;2023-09-19T02:20:46;17.10;;;11.80;;
65597;SDS011;52267;51.984;20.956;2023-09-19T02:23:13;18.60;;;12.00;;
65597;SDS011;52267;51.984;20.956;2023-09-19T02:25:40;15.50;;;11.60;;
65597;SDS011;52267;51.984;20.956;2023-09-19T02:28:07;17.80;;;11.70;;
65597;SDS011;52267;51.984;20.956;2023-09-19T02:30:35;15.20;;;10.40;;
65597;SDS011;52267;51.984;20.956;2023-09-19T02:33:03;15.60;;;11.10;;
65597;SDS011;52267;51.984;20.956;2023-09-19T02:35:31;16.50;;;12.40;;
65597;SDS011;52267;51.984;20.956;2023-09-19T02:38:03;17.30;;;12.20;;
65597;SDS011;52267;51.984;20.956;2023-09-19T02:40:33;17.00;;;12.40;;
65597;SDS011;52267;51.984;20.956;2023-09-19T02:43:02;18.40;;;13.30;;
65597;SDS011;52267;51.984;20.956;2023-09-19T02:45:30;17.90;;;12.30;;
65597;SDS011;52267;51.984;20.956;2023-09-19T02:47:58;17.20;;;12.30;;
65597;SDS011;52267;51.984;20.956;2023-09-19T02:50:25;17.20;;;12.20;;
65597;SDS011;52267;51.984;20.956;2023-09-19T02:52:52;17.30;;;12.10;;
65597;SDS011;52267;51.984;20.956;2023-09-19T02:55:19;17.20;;;12.10;;
65597;SDS011;52267;51.984;20.956;2023-09-19T02:57:49;16.60;;;11.50;;
65597;SDS011;52267;51.984;20.956;2023-09-19T03:00:18;17.80;;;11.90;;
65597;SDS011;52267;51.984;20.956;2023-09-19T03:02:55;17.00;;;11.80;;
65597;SDS011;52267;51.984;20.956;2023-09-19T03:05:23;18.20;;;12.50;;
65597;SDS011;52267;51.984;20.956;2023-09-19T03:07:51;22.10;;;11.60;;
65597;SDS011;52267;51.984;20.956;2023-09-19T03:10:20;15.80;;;11.30;;
65597;SDS011;52267;51.984;20.956;2023-09-19T03:12:47;19.60;;;12.60;;
65597;SDS011;52267;51.984;20.956;2023-09-19T03:15:15;18.20;;;12.50;;
65597;SDS011;52267;51.984;20.956;2023-09-19T03:17:44;18.00;;;11.80;;
65597;SDS011;52267;51.984;20.956;2023-09-19T03:20:12;17.90;;;12.60;;
65597;SDS011;52267;51.984;20.956;2023-09-19T03:22:40;16.80;;;11.90;;
65597;SDS011;52267;51.984;20.956;2023-09-19T03:25:08;16.60;;;11.50;;
65597;SDS011;52267;51.984;20.956;2023-09-19T03:27:35;18.00;;;11.70;;
65597;SDS011;52267;51.984;20.956;2023-09-19T03:30:03;16.60;;;11.70;;
65597;SDS011;52267;51.984;20.956;2023-09-19T03:32:43;18.60;;;11.60;;
65597;SDS011;52267;51.984;20.956;2023-09-19T03:35:13;17.00;;;12.50;;
65597;SDS011;52267;51.984;20.956;2023-09-19T03:37:41;16.90;;;12.40;;
65597;SDS011;52267;51.984;20.956;2023-09-19T03:40:10;16.90;;;11.80;;
65597;SDS011;52267;51.984;20.956;2023-09-19T03:42:38;15.60;;;11.50;;
65597;SDS011;52267;51.984;20.956;2023-09-19T03:45:09;18.30;;;13.30;;
65597;SDS011;52267;51.984;20.956;2023-09-19T03:47:39;18.80;;;12.50;;
65597;SDS011;52267;51.984;20.956;2023-09-19T03:50:07;17.50;;;12.20;;
65597;SDS011;52267;51.984;20.956;2023-09-19T03:52:37;18.70;;;12.20;;
65597;SDS011;52267;51.984;20.956;2023-09-19T03:55:04;17.80;;;12.90;;
65597;SDS011;52267;51.984;20.956;2023-09-19T03:57:32;19.00;;;12.60;;
65597;SDS011;52267;51.984;20.956;2023-09-19T03:59:59;18.40;;;12.50;;
65597;SDS011;52267;51.984;20.956;2023-09-19T04:02:26;18.10;;;11.50;;
65597;SDS011;52267;51.984;20.956;2023-09-19T04:04:59;16.70;;;12.40;;
65597;SDS011;52267;51.984;20.956;2023-09-19T04:07:26;19.50;;;12.70;;
65597;SDS011;52267;51.984;20.956;2023-09-19T04:09:55;17.00;;;12.10;;
65597;SDS011;52267;51.984;20.956;2023-09-19T04:12:22;15.80;;;12.70;;
65597;SDS011;52267;51.984;20.956;2023-09-19T04:14:49;18.00;;;11.80;;
65597;SDS011;52267;51.984;20.956;2023-09-19T04:17:16;18.00;;;12.50;;
65597;SDS011;52267;51.984;20.956;2023-09-19T04:19:45;16.70;;;11.50;;
65597;SDS011;52267;51.984;20.956;2023-09-19T04:22:12;18.90;;;11.80;;
65597;SDS011;52267;51.984;20.956;2023-09-19T04:24:39;18.10;;;12.40;;
65597;SDS011;52267;51.984;20.956;2023-09-19T04:27:06;19.10;;;11.90;;
65597;SDS011;52267;51.984;20.956;2023-09-19T04:29:34;17.50;;;11.40;;
65597;SDS011;52267;51.984;20.956;2023-09-19T04:32:01;16.80;;;12.80;;
65597;SDS011;52267;51.984;20.956;2023-09-19T04:34:32;17.10;;;12.70;;
65597;SDS011;52267;51.984;20.956;2023-09-19T04:37:01;19.20;;;12.10;;
65597;SDS011;52267;51.984;20.956;2023-09-19T04:39:28;17.20;;;11.70;;
65597;SDS011;52267;51.984;20.956;2023-09-19T04:41:55;17.40;;;12.90;;
65597;SDS011;52267;51.984;20.956;2023-09-19T04:44:23;16.40;;;12.10;;
65597;SDS011;52267;51.984;20.956;2023-09-19T04:46:50;18.20;;;12.00;;
65597;SDS011;52267;51.984;20.956;2023-09-19T04:49:17;16.60;;;11.50;;
65597;SDS011;52267;51.984;20.956;2023-09-19T04:51:45;18.10;;;11.90;;
65597;SDS011;52267;51.984;20.956;2023-09-19T04:54:13;18.90;;;12.30;;
65597;SDS011;52267;51.984;20.956;2023-09-19T04:56:42;18.20;;;11.90;;
65597;SDS011;52267;51.984;20.956;2023-09-19T04:59:09;16.70;;;11.00;;
65597;SDS011;52267;51.984;20.956;2023-09-19T05:01:37;17.00;;;12.00;;
65597;SDS011;52267;51.984;20.956;2023-09-19T05:04:04;17.00;;;13.10;;
65597;SDS011;52267;51.984;20.956;2023-09-19T05:06:32;16.10;;;11.70;;
65597;SDS011;52267;51.984;20.956;2023-09-19T05:09:00;15.60;;;11.40;;
65597;SDS011;52267;51.984;20.956;2023-09-19T05:11:27;18.40;;;12.30;;
65597;SDS011;52267;51.984;20.956;2023-09-19T05:13:56;20.20;;;11.70;;
65597;SDS011;52267;51.984;20.956;2023-09-19T05:16:24;16.80;;;11.30;;
65597;SDS011;52267;51.984;20.956;2023-09-19T05:18:51;18.00;;;11.10;;
65597;SDS011;52267;51.984;20.956;2023-09-19T05:21:18;16.30;;;11.50;;
65597;SDS011;52267;51.984;20.956;2023-09-19T05:23:45;17.00;;;11.10;;
65597;SDS011;52267;51.984;20.956;2023-09-19T05:26:14;17.80;;;12.00;;
65597;SDS011;52267;51.984;20.956;2023-09-19T05:28:43;16.80;;;11.60;;
65597;SDS011;52267;51.984;20.956;2023-09-19T05:31:10;17.30;;;11.40;;
65597;SDS011;52267;51.984;20.956;2023-09-19T05:33:37;16.00;;;11.10;;
65597;SDS011;52267;51.984;20.956;2023-09-19T05:36:04;17.70;;;11.70;;
65597;SDS011;52267;51.984;20.956;2023-09-19T05:38:31;16.50;;;10.90;;
65597;SDS011;52267;51.984;20.956;2023-09-19T05:40:59;15.90;;;10.80;;
65597;SDS011;52267;51.984;20.956;2023-09-19T05:43:26;18.90;;;11.80;;
65597;SDS011;52267;51.984;20.956;2023-09-19T05:45:53;16.70;;;11.70;;
65597;SDS011;52267;51.984;20.956;2023-09-19T05:48:23;19.20;;;11.70;;
65597;SDS011;52267;51.984;20.956;2023-09-19T05:50:50;13.80;;;10.50;;
65597;SDS011;52267;51.984;20.956;2023-09-19T05:53:17;16.80;;;11.70;;
65597;SDS011;52267;51.984;20.956;2023-09-19T05:55:45;16.20;;;10.60;;
65597;SDS011;52267;51.984;20.956;2023-09-19T05:58:12;15.00;;;10.20;;
65597;SDS011;52267;51.984;20.956;2023-09-19T06:00:41;16.60;;;11.80;;
65597;SDS011;52267;51.984;20.956;2023-09-19T06:03:09;16.40;;;10.70;;
65597;SDS011;52267;51.984;20.956;2023-09-19T06:05:40;14.40;;;10.20;;
65597;SDS011;52267;51.984;20.956;2023-09-19T06:08:08;16.30;;;10.30;;
65597;SDS011;52267;51.984;20.956;2023-09-19T06:10:36;16.60;;;10.70;;
65597;SDS011;52267;51.984;20.956;2023-09-19T06:13:03;15.40;;;10.40;;
65597;SDS011;52267;51.984;20.956;2023-09-19T06:15:31;16.60;;;10.90;;
65597;SDS011;52267;51.984;20.956;2023-09-19T06:17:59;13.90;;;9.80;;
65597;SDS011;52267;51.984;20.956;2023-09-19T06:20:28;15.50;;;11.10;;
65597;SDS011;52267;51.984;20.956;2023-09-19T06:22:56;15.70;;;8.80;;
65597;SDS011;52267;51.984;20.956;2023-09-19T06:25:23;14.10;;;9.80;;
65597;SDS011;52267;51.984;20.956;2023-09-19T06:27:52;13.20;;;9.40;;
65597;SDS011;52267;51.984;20.956;2023-09-19T06:30:22;17.50;;;10.40;;
65597;SDS011;52267;51.984;20.956;2023-09-19T06:32:56;15.50;;;9.90;;
65597;SDS011;52267;51.984;20.956;2023-09-19T06:35:24;14.60;;;9.40;;
65597;SDS011;52267;51.984;20.956;2023-09-19T06:37:52;17.30;;;9.90;;
65597;SDS011;52267;51.984;20.956;2023-09-19T06:40:19;14.30;;;10.30;;
65597;SDS011;52267;51.984;20.956;2023-09-19T06:42:50;16.80;;;9.90;;
65597;SDS011;52267;51.984;20.956;2023-09-19T06:45:19;14.70;;;11.30;;
65597;SDS011;52267;51.984;20.956;2023-09-19T06:47:50;17.30;;;9.90;;
65597;SDS011;52267;51.984;20.956;2023-09-19T06:50:18;14.30;;;9.50;;
65597;SDS011;52267;51.984;20.956;2023-09-19T06:52:47;14.70;;;11.10;;
65597;SDS011;52267;51.984;20.956;2023-09-19T06:55:17;14.40;;;10.50;;
65597;SDS011;52267;51.984;20.956;2023-09-19T06:57:47;13.10;;;9.70;;
65597;SDS011;52267;51.984;20.956;2023-09-19T07:00:15;14.70;;;9.90;;
65597;SDS011;52267;51.984;20.956;2023-09-19T07:02:45;15.00;;;10.10;;
65597;SDS011;52267;51.984;20.956;2023-09-19T07:05:21;12.80;;;10.00;;
65597;SDS011;52267;51.984;20.956;2023-09-19T07:07:48;16.00;;;11.90;;
65597;SDS011;52267;51.984;20.956;2023-09-19T07:10:16;15.50;;;10.20;;
65597;SDS011;52267;51.984;20.956;2023-09-19T07:12:43;15.60;;;10.10;;
65597;SDS011;52267;51.984;20.956;2023-09-19T07:15:10;13.80;;;9.50;;
65597;SDS011;52267;51.984;20.956;2023-09-19T07:17:37;13.40;;;10.00;;
65597;SDS011;52267;51.984;20.956;2023-09-19T07:20:05;15.20;;;10.10;;
65597;SDS011;52267;51.984;20.956;2023-09-19T07:22:35;14.40;;;9.90;;
65597;SDS011;52267;51.984;20.956;2023-09-19T07:25:06;13.30;;;9.70;;
65597;SDS011;52267;51.984;20.956;2023-09-19T07:27:33;14.50;;;9.20;;
65597;SDS011;52267;51.984;20.956;2023-09-19T07:30:01;15.50;;;10.20;;
65597;SDS011;52267;51.984;20.956;2023-09-19T07:32:28;10.70;;;8.30;;
65597;SDS011;52267;51.984;20.956;2023-09-19T07:34:55;15.70;;;10.40;;
65597;SDS011;52267;51.984;20.956;2023-09-19T07:37:22;15.40;;;10.30;;
65597;SDS011;52267;51.984;20.956;2023-09-19T07:39:52;15.10;;;10.20;;
65597;SDS011;52267;51.984;20.956;2023-09-19T07:42:19;15.50;;;10.50;;
65597;SDS011;52267;51.984;20.956;2023-09-19T07:44:46;12.30;;;9.80;;
65597;SDS011;52267;51.984;20.956;2023-09-19T07:47:16;13.10;;;9.60;;
65597;SDS011;52267;51.984;20.956;2023-09-19T07:49:48;14.10;;;11.00;;
65597;SDS011;52267;51.984;20.956;2023-09-19T07:52:16;13.00;;;10.30;;
65597;SDS011;52267;51.984;20.956;2023-09-19T07:54:43;14.20;;;9.90;;
65597;SDS011;52267;51.984;20.956;2023-09-19T07:57:11;14.20;;;11.40;;
65597;SDS011;52267;51.984;20.956;2023-09-19T07:59:38;16.60;;;10.80;;
65597;SDS011;52267;51.984;20.956;2023-09-19T08:02:08;16.90;;;11.50;;
65597;SDS011;52267;51.984;20.956;2023-09-19T08:04:42;15.20;;;10.40;;
65597;SDS011;52267;51.984;20.956;2023-09-19T08:07:10;15.40;;;12.00;;
65597;SDS011;52267;51.984;20.956;2023-09-19T08:09:37;16.20;;;10.90;;
65597;SDS011;52267;51.984;20.956;2023-09-19T08:12:08;14.30;;;10.70;;
65597;SDS011;52267;51.984;20.956;2023-09-19T08:14:37;15.80;;;11.40;;
65597;SDS011;52267;51.984;20.956;2023-09-19T08:17:04;16.10;;;11.00;;
65597;SDS011;52267;51.984;20.956;2023-09-19T08:19:32;17.00;;;12.70;;
65597;SDS011;52267;51.984;20.956;2023-09-19T08:21:59;15.60;;;12.00;;
65597;SDS011;52267;51.984;20.956;2023-09-19T08:24:28;14.70;;;11.40;;
65597;SDS011;52267;51.984;20.956;2023-09-19T08:26:57;15.40;;;11.90;;
65597;SDS011;52267;51.984;20.956;2023-09-19T08:29:25;14.30;;;11.60;;
65597;SDS011;52267;51.984;20.956;2023-09-19T08:31:54;15.90;;;12.50;;
65597;SDS011;52267;51.984;20.956;2023-09-19T08:34:23;17.30;;;12.20;;
65597;SDS011;52267;51.984;20.956;2023-09-19T08:36:52;15.60;;;12.60;;
65597;SDS011;52267;51.984;20.956;2023-09-19T08:39:25;17.70;;;12.40;;
65597;SDS011;52267;51.984;20.956;2023-09-19T08:41:57;16.80;;;12.40;;
65597;SDS011;52267;51.984;20.956;2023-09-19T08:44:28;16.20;;;12.90;;
65597;SDS011;52267;51.984;20.956;2023-09-19T08:47:08;15.80;;;11.10;;
65597;SDS011;52267;51.984;20.956;2023-09-19T08:52:39;15.70;;;12.00;;
65597;SDS011;52267;51.984;20.956;2023-09-19T08:55:11;16.00;;;12.90;;
65597;SDS011;52267;51.984;20.956;2023-09-19T08:57:41;15.40;;;11.30;;
65597;SDS011;52267;51.984;20.956;2023-09-19T09:00:11;17.10;;;12.90;;
65597;SDS011;52267;51.984;20.956;2023-09-19T09:02:42;16.60;;;12.60;;
65597;SDS011;52267;51.984;20.956;2023-09-19T09:05:10;15.50;;;11.40;;
65597;SDS011;52267;51.984;20.956;2023-09-19T09:07:38;16.30;;;11.90;;
65597;SDS011;52267;51.984;20.956;2023-09-19T09:10:05;14.90;;;11.30;;
65597;SDS011;52267;51.984;20.956;2023-09-19T09:12:35;15.90;;;11.00;;
65597;SDS011;52267;51.984;20.956;2023-09-19T09:15:07;15.50;;;11.30;;
65597;SDS011;52267;51.984;20.956;2023-09-19T09:17:38;13.10;;;9.80;;
65597;SDS011;52267;51.984;20.956;2023-09-19T09:20:05;16.70;;;11.20;;
65597;SDS011;52267;51.984;20.956;2023-09-19T09:22:35;15.70;;;11.70;;
65597;SDS011;52267;51.984;20.956;2023-09-19T09:25:03;15.70;;;10.90;;
65597;SDS011;52267;51.984;20.956;2023-09-19T09:27:33;13.70;;;10.90;;
65597;SDS011;52267;51.984;20.956;2023-09-19T09:30:00;15.80;;;11.10;;
65597;SDS011;52267;51.984;20.956;2023-09-19T09:32:29;18.70;;;12.70;;
65597;SDS011;52267;51.984;20.956;2023-09-19T09:35:01;18.70;;;11.30;;
65597;SDS011;52267;51.984;20.956;2023-09-19T09:37:31;18.00;;;11.60;;
65597;SDS011;52267;51.984;20.956;2023-09-19T09:40:02;24.20;;;11.40;;
65597;SDS011;52267;51.984;20.956;2023-09-19T09:42:41;13.70;;;9.00;;
65597;SDS011;52267;51.984;20.956;2023-09-19T09:45:23;16.90;;;11.50;;
65597;SDS011;52267;51.984;20.956;2023-09-19T09:48:00;16.70;;;11.20;;
65597;SDS011;52267;51.984;20.956;2023-09-19T09:50:34;17.50;;;11.60;;
65597;SDS011;52267;51.984;20.956;2023-09-19T09:53:24;17.10;;;10.50;;
65597;SDS011;52267;51.984;20.956;2023-09-19T09:56:08;28.00;;;12.70;;
65597;SDS011;52267;51.984;20.956;2023-09-19T09:58:58;15.50;;;11.30;;
65597;SDS011;52267;51.984;20.956;2023-09-19T10:01:26;18.40;;;12.50;;
65597;SDS011;52267;51.984;20.956;2023-09-19T10:03:59;16.10;;;11.30;;
65597;SDS011;52267;51.984;20.956;2023-09-19T10:06:40;16.90;;;11.90;;
65597;SDS011;52267;51.984;20.956;2023-09-19T10:09:13;16.40;;;11.60;;
65597;SDS011;52267;51.984;20.956;2023-09-19T10:11:45;20.30;;;13.60;;
65597;SDS011;52267;51.984;20.956;2023-09-19T10:14:27;21.00;;;13.50;;
65597;SDS011;52267;51.984;20.956;2023-09-19T10:16:59;20.10;;;12.60;;
65597;SDS011;52267;51.984;20.956;2023-09-19T10:19:36;16.60;;;12.30;;
65597;SDS011;52267;51.984;20.956;2023-09-19T10:22:14;18.00;;;12.20;;
65597;SDS011;52267;51.984;20.956;2023-09-19T10:24:43;19.00;;;13.30;;
65597;SDS011;52267;51.984;20.956;2023-09-19T10:27:11;17.80;;;12.80;;
65597;SDS011;52267;51.984;20.956;2023-09-19T10:29:39;18.50;;;13.00;;
65597;SDS011;52267;51.984;20.956;2023-09-19T10:32:07;19.40;;;12.50;;
65597;SDS011;52267;51.984;20.956;2023-09-19T10:34:36;20.00;;;13.00;;
65597;SDS011;52267;51.984;20.956;2023-09-19T10:37:04;19.40;;;12.60;;
65597;SDS011;52267;51.984;20.956;2023-09-19T10:39:32;19.60;;;12.30;;
65597;SDS011;52267;51.984;20.956;2023-09-19T10:42:02;19.50;;;13.00;;
65597;SDS011;52267;51.984;20.956;2023-09-19T10:44:32;18.40;;;13.10;;
65597;SDS011;52267;51.984;20.956;2023-09-19T10:47:00;17.20;;;11.70;;
65597;SDS011;52267;51.984;20.956;2023-09-19T10:49:28;18.00;;;12.40;;
65597;SDS011;52267;51.984;20.956;2023-09-19T10:51:59;21.00;;;13.00;;
65597;SDS011;52267;51.984;20.956;2023-09-19T10:54:31;18.00;;;11.60;;
65597;SDS011;52267;51.984;20.956;2023-09-19T10:57:03;16.80;;;11.80;;
65597;SDS011;52267;51.984;20.956;2023-09-19T10:59:36;18.80;;;12.50;;
65597;SDS011;52267;51.984;20.956;2023-09-19T11:02:26;19.00;;;11.90;;
65597;SDS011;52267;51.984;20.956;2023-09-19T11:04:53;18.80;;;12.40;;
65597;SDS011;52267;51.984;20.956;2023-09-19T11:07:21;20.20;;;13.10;;
65597;SDS011;52267;51.984;20.956;2023-09-19T11:09:55;19.70;;;13.60;;
65597;SDS011;52267;51.984;20.956;2023-09-19T11:15:05;12.90;;;9.00;;
65597;SDS011;52267;51.984;20.956;2023-09-19T11:17:38;12.30;;;8.80;;
65597;SDS011;52267;51.984;20.956;2023-09-19T11:30:39;8.20;;;5.50;;
65597;SDS011;52267;51.984;20.956;2023-09-19T11:36:13;7.60;;;5.50;;
65597;SDS011;52267;51.984;20.956;2023-09-19T11:46:27;8.10;;;5.40;;
65597;SDS011;52267;51.984;20.956;2023-09-19T11:48:55;11.00;;;5.40;;
65597;SDS011;52267;51.984;20.956;2023-09-19T11:51:24;7.30;;;5.40;;
65597;SDS011;52267;51.984;20.956;2023-09-19T11:53:56;8.60;;;5.30;;
65597;SDS011;52267;51.984;20.956;2023-09-19T11:56:27;7.60;;;4.70;;
65597;SDS011;52267;51.984;20.956;2023-09-19T11:58:56;6.90;;;4.70;;
65597;SDS011;52267;51.984;20.956;2023-09-19T12:01:32;6.20;;;4.80;;
65597;SDS011;52267;51.984;20.956;2023-09-19T12:04:01;8.20;;;4.40;;
65597;SDS011;52267;51.984;20.956;2023-09-19T12:06:31;8.50;;;4.10;;
65597;SDS011;52267;51.984;20.956;2023-09-19T12:09:02;7.40;;;4.10;;
65597;SDS011;52267;51.984;20.956;2023-09-19T12:11:41;8.20;;;5.10;;
65597;SDS011;52267;51.984;20.956;2023-09-19T12:14:10;7.10;;;4.50;;
65597;SDS011;52267;51.984;20.956;2023-09-19T12:16:38;6.90;;;4.20;;
65597;SDS011;52267;51.984;20.956;2023-09-19T12:19:26;8.60;;;4.20;;
65597;SDS011;52267;51.984;20.956;2023-09-19T12:22:00;7.60;;;4.50;;
65597;SDS011;52267;51.984;20.956;2023-09-19T12:24:32;7.70;;;4.80;;
65597;SDS011;52267;51.984;20.956;2023-09-19T12:27:03;8.20;;;4.60;;
65597;SDS011;52267;51.984;20.956;2023-09-19T12:29:42;6.70;;;4.30;;
65597;SDS011;52267;51.984;20.956;2023-09-19T12:32:10;8.90;;;5.10;;
65597;SDS011;52267;51.984;20.956;2023-09-19T12:34:37;6.80;;;4.70;;
65597;SDS011;52267;51.984;20.956;2023-09-19T12:37:13;8.50;;;5.10;;
65597;SDS011;52267;51.984;20.956;2023-09-19T12:40:07;7.60;;;5.10;;
65597;SDS011;52267;51.984;20.956;2023-09-19T12:42:43;7.90;;;4.80;;
65597;SDS011;52267;51.984;20.956;2023-09-19T12:45:11;9.70;;;5.20;;
65597;SDS011;52267;51.984;20.956;2023-09-19T12:47:40;8.80;;;5.40;;
65597;SDS011;52267;51.984;20.956;2023-09-19T12:51:06;10.20;;;5.10;;
65597;SDS011;52267;51.984;20.956;2023-09-19T12:53:44;7.80;;;5.50;;
65597;SDS011;52267;51.984;20.956;2023-09-19T12:56:14;7.20;;;5.00;;
65597;SDS011;52267;51.984;20.956;2023-09-19T12:58:53;7.50;;;5.40;;
65597;SDS011;52267;51.984;20.956;2023-09-19T13:01:26;8.70;;;5.30;;
65597;SDS011;52267;51.984;20.956;2023-09-19T13:06:47;9.00;;;5.80;;
65597;SDS011;52267;51.984;20.956;2023-09-19T13:09:19;8.90;;;5.70;;
65597;SDS011;52267;51.984;20.956;2023-09-19T13:11:48;8.30;;;5.90;;
65597;SDS011;52267;51.984;20.956;2023-09-19T13:14:26;7.60;;;5.70;;
65597;SDS011;52267;51.984;20.956;2023-09-19T13:17:05;8.60;;;5.80;;
65597;SDS011;52267;51.984;20.956;2023-09-19T13:19:47;8.10;;;5.70;;
65597;SDS011;52267;51.984;20.956;2023-09-19T13:22:40;10.30;;;6.40;;
65597;SDS011;52267;51.984;20.956;2023-09-19T13:25:17;9.00;;;5.70;;
65597;SDS011;52267;51.984;20.956;2023-09-19T13:27:55;9.30;;;6.00;;
65597;SDS011;52267;51.984;20.956;2023-09-19T13:30:25;10.20;;;6.60;;
65597;SDS011;52267;51.984;20.956;2023-09-19T13:33:04;10.20;;;6.80;;
65597;SDS011;52267;51.984;20.956;2023-09-19T13:35:38;11.00;;;7.00;;
65597;SDS011;52267;51.984;20.956;2023-09-19T13:38:07;12.50;;;7.90;;
65597;SDS011;52267;51.984;20.956;2023-09-19T13:40:38;13.20;;;7.20;;
65597;SDS011;52267;51.984;20.956;2023-09-19T13:43:06;8.50;;;6.60;;
65597;SDS011;52267;51.984;20.956;2023-09-19T13:45:33;11.10;;;7.40;;
65597;SDS011;52267;51.984;20.956;2023-09-19T13:48:01;10.70;;;7.20;;
65597;SDS011;52267;51.984;20.956;2023-09-19T13:50:28;10.90;;;7.30;;
65597;SDS011;52267;51.984;20.956;2023-09-19T13:52:55;10.70;;;7.40;;
65597;SDS011;52267;51.984;20.956;2023-09-19T13:55:22;9.50;;;7.20;;
65597;SDS011;52267;51.984;20.956;2023-09-19T13:57:51;10.00;;;7.60;;
65597;SDS011;52267;51.984;20.956;2023-09-19T14:00:22;12.10;;;7.50;;
65597;SDS011;52267;51.984;20.956;2023-09-19T14:02:50;11.40;;;8.20;;
65597;SDS011;52267;51.984;20.956;2023-09-19T14:05:17;11.10;;;8.20;;
65597;SDS011;52267;51.984;20.956;2023-09-19T14:07:49;9.40;;;7.50;;
65597;SDS011;52267;51.984;20.956;2023-09-19T14:10:17;12.20;;;9.10;;
65597;SDS011;52267;51.984;20.956;2023-09-19T14:12:47;9.20;;;7.60;;
65597;SDS011;52267;51.984;20.956;2023-09-19T14:15:14;12.10;;;8.30;;
65597;SDS011;52267;51.984;20.956;2023-09-19T14:17:41;10.40;;;8.40;;
65597;SDS011;52267;51.984;20.956;2023-09-19T14:20:09;10.70;;;8.80;;
65597;SDS011;52267;51.984;20.956;2023-09-19T14:22:37;11.10;;;8.50;;
65597;SDS011;52267;51.984;20.956;2023-09-19T14:25:04;14.50;;;9.20;;
65597;SDS011;52267;51.984;20.956;2023-09-19T14:27:32;13.40;;;9.40;;
65597;SDS011;52267;51.984;20.956;2023-09-19T14:29:59;11.80;;;9.20;;
65597;SDS011;52267;51.984;20.956;2023-09-19T14:32:26;12.70;;;8.80;;
65597;SDS011;52267;51.984;20.956;2023-09-19T14:34:53;11.70;;;8.80;;
65597;SDS011;52267;51.984;20.956;2023-09-19T14:37:21;10.90;;;8.60;;
65597;SDS011;52267;51.984;20.956;2023-09-19T14:39:48;10.40;;;8.80;;
65597;SDS011;52267;51.984;20.956;2023-09-19T14:42:15;12.80;;;9.40;;
65597;SDS011;52267;51.984;20.956;2023-09-19T14:44:44;11.30;;;8.50;;
65597;SDS011;52267;51.984;20.956;2023-09-19T14:47:11;11.00;;;8.80;;
65597;SDS011;52267;51.984;20.956;2023-09-19T14:49:40;12.60;;;8.90;;
65597;SDS011;52267;51.984;20.956;2023-09-19T14:52:08;9.50;;;8.20;;
65597;SDS011;52267;51.984;20.956;2023-09-19T14:54:36;10.80;;;8.50;;
65597;SDS011;52267;51.984;20.956;2023-09-19T14:57:04;12.50;;;8.70;;
65597;SDS011;52267;51.984;20.956;2023-09-19T14:59:32;11.80;;;9.00;;
65597;SDS011;52267;51.984;20.956;2023-09-19T15:02:00;10.50;;;8.50;;
65597;SDS011;52267;51.984;20.956;2023-09-19T15:04:27;11.70;;;7.80;;
65597;SDS011;52267;51.984;20.956;2023-09-19T15:06:55;9.00;;;7.10;;
65597;SDS011;52267;51.984;20.956;2023-09-19T15:09:23;8.90;;;7.90;;
65597;SDS011;52267;51.984;20.956;2023-09-19T15:11:53;11.50;;;9.10;;
65597;SDS011;52267;51.984;20.956;2023-09-19T15:14:21;10.40;;;8.30;;
65597;SDS011;52267;51.984;20.956;2023-09-19T15:16:49;10.70;;;8.20;;
65597;SDS011;52267;51.984;20.956;2023-09-19T15:19:16;9.50;;;7.20;;